sensor_id;sensor_type;location;lat;lon;timestamp;temperature;humidity
39019;DHT22;24786;51.984;5.872;2023-04-15T00:00:00;9.50;99.90
39019;DHT22;24786;51.984;5.872;2023-04-15T00:02:26;9.50;99.90
39019;DHT22;24786;51.984;5.872;2023-04-15T00:04:51;9.50;99.90
39019;DHT22;24786;51.984;5.872;2023-04-15T00:07:16;9.50;99.90
39019;DHT22;24786;51.984;5.872;2023-04-15T00:09:42;9.50;99.90
39019;DHT22;24786;51.984;5.872;2023-04-15T00:12:09;9.40;99.90
39019;DHT22;24786;51.984;5.872;2023-04-15T00:14:35;9.40;99.90
39019;DHT22;24786;51.984;5.872;2023-04-15T00:17:01;9.40;99.90
39019;DHT22;24786;51.984;5.872;2023-04-15T00:19:27;9.40;99.90
39019;DHT22;24786;51.984;5.872;2023-04-15T00:21:53;9.40;99.90
39019;DHT22;24786;51.984;5.872;2023-04-15T00:24:19;9.30;99.90
39019;DHT22;24786;51.984;5.872;2023-04-15T00:26:45;9.30;99.90
39019;DHT22;24786;51.984;5.872;2023-04-15T00:29:10;9.40;99.90
39019;DHT22;24786;51.984;5.872;2023-04-15T00:31:36;9.30;99.90
39019;DHT22;24786;51.984;5.872;2023-04-15T00:34:01;9.30;99.90
39019;DHT22;24786;51.984;5.872;2023-04-15T00:36:27;9.30;99.90
39019;DHT22;24786;51.984;5.872;2023-04-15T00:38:53;9.30;99.90
39019;DHT22;24786;51.984;5.872;2023-04-15T00:41:18;9.20;99.90
39019;DHT22;24786;51.984;5.872;2023-04-15T00:43:45;9.20;99.90
39019;DHT22;24786;51.984;5.872;2023-04-15T00:46:11;9.10;99.90
39019;DHT22;24786;51.984;5.872;2023-04-15T00:48:37;9.10;99.90
39019;DHT22;24786;51.984;5.872;2023-04-15T00:51:03;9.10;99.90
39019;DHT22;24786;51.984;5.872;2023-04-15T00:53:28;9.20;99.90
39019;DHT22;24786;51.984;5.872;2023-04-15T00:55:54;9.10;99.90
39019;DHT22;24786;51.984;5.872;2023-04-15T00:58:20;9.10;99.90
39019;DHT22;24786;51.984;5.872;2023-04-15T01:00:45;9.10;99.90
39019;DHT22;24786;51.984;5.872;2023-04-15T01:03:12;9.00;99.90
39019;DHT22;24786;51.984;5.872;2023-04-15T01:05:38;9.00;99.90
39019;DHT22;24786;51.984;5.872;2023-04-15T01:08:04;9.00;99.90
39019;DHT22;24786;51.984;5.872;2023-04-15T01:10:29;9.00;99.90
39019;DHT22;24786;51.984;5.872;2023-04-15T01:12:55;9.00;99.90
39019;DHT22;24786;51.984;5.872;2023-04-15T01:15:20;9.00;99.90
39019;DHT22;24786;51.984;5.872;2023-04-15T01:17:46;9.00;99.90
39019;DHT22;24786;51.984;5.872;2023-04-15T01:20:12;9.00;99.90
39019;DHT22;24786;51.984;5.872;2023-04-15T01:22:37;9.00;99.90
39019;DHT22;24786;51.984;5.872;2023-04-15T01:25:10;9.00;99.90
39019;DHT22;24786;51.984;5.872;2023-04-15T01:27:39;9.00;99.90
39019;DHT22;24786;51.984;5.872;2023-04-15T01:30:06;9.00;99.90
39019;DHT22;24786;51.984;5.872;2023-04-15T01:32:32;8.90;99.90
39019;DHT22;24786;51.984;5.872;2023-04-15T01:34:57;8.90;99.90
39019;DHT22;24786;51.984;5.872;2023-04-15T01:37:23;8.90;99.90
39019;DHT22;24786;51.984;5.872;2023-04-15T01:39:49;9.00;99.90
39019;DHT22;24786;51.984;5.872;2023-04-15T01:42:14;8.90;99.90
39019;DHT22;24786;51.984;5.872;2023-04-15T01:44:40;9.00;99.90
39019;DHT22;24786;51.984;5.872;2023-04-15T01:47:05;8.90;99.90
39019;DHT22;24786;51.984;5.872;2023-04-15T01:49:31;8.90;99.90
39019;DHT22;24786;51.984;5.872;2023-04-15T01:51:56;8.90;99.90
39019;DHT22;24786;51.984;5.872;2023-04-15T01:54:22;8.90;99.90
39019;DHT22;24786;51.984;5.872;2023-04-15T01:56:47;8.90;99.90
39019;DHT22;24786;51.984;5.872;2023-04-15T01:59:13;8.90;99.90
39019;DHT22;24786;51.984;5.872;2023-04-15T02:01:39;8.90;99.90
39019;DHT22;24786;51.984;5.872;2023-04-15T02:04:05;8.90;99.90
39019;DHT22;24786;51.984;5.872;2023-04-15T02:06:31;8.90;99.90
39019;DHT22;24786;51.984;5.872;2023-04-15T02:08:56;8.90;99.90
39019;DHT22;24786;51.984;5.872;2023-04-15T02:11:23;8.90;99.90
39019;DHT22;24786;51.984;5.872;2023-04-15T02:13:48;8.90;99.90
39019;DHT22;24786;51.984;5.872;2023-04-15T02:16:17;8.90;99.90
39019;DHT22;24786;51.984;5.872;2023-04-15T02:18:43;8.90;99.90
39019;DHT22;24786;51.984;5.872;2023-04-15T02:21:09;8.80;99.90
39019;DHT22;24786;51.984;5.872;2023-04-15T02:23:34;8.80;99.90
39019;DHT22;24786;51.984;5.872;2023-04-15T02:26:00;8.80;99.90
39019;DHT22;24786;51.984;5.872;2023-04-15T02:28:25;8.70;99.90
39019;DHT22;24786;51.984;5.872;2023-04-15T02:30:51;8.70;99.90
39019;DHT22;24786;51.984;5.872;2023-04-15T02:33:18;8.70;99.90
39019;DHT22;24786;51.984;5.872;2023-04-15T02:35:44;8.60;99.90
39019;DHT22;24786;51.984;5.872;2023-04-15T02:38:10;8.60;99.90
39019;DHT22;24786;51.984;5.872;2023-04-15T02:40:36;8.50;99.90
39019;DHT22;24786;51.984;5.872;2023-04-15T02:43:01;8.50;99.90
39019;DHT22;24786;51.984;5.872;2023-04-15T02:45:27;8.40;99.90
39019;DHT22;24786;51.984;5.872;2023-04-15T02:47:53;8.40;99.90
39019;DHT22;24786;51.984;5.872;2023-04-15T02:50:19;8.30;99.90
39019;DHT22;24786;51.984;5.872;2023-04-15T02:52:45;8.30;99.90
39019;DHT22;24786;51.984;5.872;2023-04-15T02:55:10;8.20;99.90
39019;DHT22;24786;51.984;5.872;2023-04-15T02:57:37;8.20;99.90
39019;DHT22;24786;51.984;5.872;2023-04-15T03:00:04;8.10;99.90
39019;DHT22;24786;51.984;5.872;2023-04-15T03:02:33;8.10;99.90
39019;DHT22;24786;51.984;5.872;2023-04-15T03:04:59;8.10;99.90
39019;DHT22;24786;51.984;5.872;2023-04-15T03:07:25;8.10;99.90
39019;DHT22;24786;51.984;5.872;2023-04-15T03:09:50;8.00;99.90
39019;DHT22;24786;51.984;5.872;2023-04-15T03:12:16;8.00;99.90
39019;DHT22;24786;51.984;5.872;2023-04-15T03:14:42;7.90;99.90
39019;DHT22;24786;51.984;5.872;2023-04-15T03:17:07;7.90;99.90
39019;DHT22;24786;51.984;5.872;2023-04-15T03:19:33;7.90;99.90
39019;DHT22;24786;51.984;5.872;2023-04-15T03:21:58;7.80;99.90
39019;DHT22;24786;51.984;5.872;2023-04-15T03:24:23;7.80;99.90
39019;DHT22;24786;51.984;5.872;2023-04-15T03:26:49;7.80;99.90
39019;DHT22;24786;51.984;5.872;2023-04-15T03:29:15;7.80;99.90
39019;DHT22;24786;51.984;5.872;2023-04-15T03:31:40;7.70;99.90
39019;DHT22;24786;51.984;5.872;2023-04-15T03:34:06;7.70;99.90
39019;DHT22;24786;51.984;5.872;2023-04-15T03:36:31;7.70;99.90
39019;DHT22;24786;51.984;5.872;2023-04-15T03:38:57;7.60;99.90
39019;DHT22;24786;51.984;5.872;2023-04-15T03:41:23;7.60;99.90
39019;DHT22;24786;51.984;5.872;2023-04-15T03:43:48;7.60;99.90
39019;DHT22;24786;51.984;5.872;2023-04-15T03:46:16;7.60;99.90
39019;DHT22;24786;51.984;5.872;2023-04-15T03:48:42;7.60;99.90
39019;DHT22;24786;51.984;5.872;2023-04-15T03:51:07;7.60;99.90
39019;DHT22;24786;51.984;5.872;2023-04-15T03:53:33;7.60;99.90
39019;DHT22;24786;51.984;5.872;2023-04-15T03:55:58;7.60;99.90
39019;DHT22;24786;51.984;5.872;2023-04-15T03:58:24;7.50;99.90
39019;DHT22;24786;51.984;5.872;2023-04-15T04:00:49;7.50;99.90
39019;DHT22;24786;51.984;5.872;2023-04-15T04:03:15;7.50;99.90
39019;DHT22;24786;51.984;5.872;2023-04-15T04:05:41;7.40;99.90
39019;DHT22;24786;51.984;5.872;2023-04-15T04:08:08;7.40;99.90
39019;DHT22;24786;51.984;5.872;2023-04-15T04:10:33;7.40;99.90
39019;DHT22;24786;51.984;5.872;2023-04-15T04:12:59;7.30;99.90
39019;DHT22;24786;51.984;5.872;2023-04-15T04:15:25;7.30;99.90
39019;DHT22;24786;51.984;5.872;2023-04-15T04:17:51;7.30;99.90
39019;DHT22;24786;51.984;5.872;2023-04-15T04:20:16;7.30;99.90
39019;DHT22;24786;51.984;5.872;2023-04-15T04:22:42;7.20;99.90
39019;DHT22;24786;51.984;5.872;2023-04-15T04:25:07;7.20;99.90
39019;DHT22;24786;51.984;5.872;2023-04-15T04:27:34;7.10;99.90
39019;DHT22;24786;51.984;5.872;2023-04-15T04:30:00;7.10;99.90
39019;DHT22;24786;51.984;5.872;2023-04-15T04:32:26;7.10;99.90
39019;DHT22;24786;51.984;5.872;2023-04-15T04:34:52;7.10;99.90
39019;DHT22;24786;51.984;5.872;2023-04-15T04:37:17;7.00;99.90
39019;DHT22;24786;51.984;5.872;2023-04-15T04:39:43;7.00;99.90
39019;DHT22;24786;51.984;5.872;2023-04-15T04:42:08;7.00;99.90
39019;DHT22;24786;51.984;5.872;2023-04-15T04:44:34;6.90;99.90
39019;DHT22;24786;51.984;5.872;2023-04-15T04:46:59;6.90;99.90
39019;DHT22;24786;51.984;5.872;2023-04-15T04:49:25;6.90;99.90
39019;DHT22;24786;51.984;5.872;2023-04-15T04:51:50;6.90;99.90
39019;DHT22;24786;51.984;5.872;2023-04-15T04:54:16;6.90;99.90
39019;DHT22;24786;51.984;5.872;2023-04-15T04:56:41;6.80;99.90
39019;DHT22;24786;51.984;5.872;2023-04-15T04:59:07;6.90;99.90
39019;DHT22;24786;51.984;5.872;2023-04-15T05:01:33;6.80;99.90
39019;DHT22;24786;51.984;5.872;2023-04-15T05:03:59;6.80;99.90
39019;DHT22;24786;51.984;5.872;2023-04-15T05:06:24;6.90;99.90
39019;DHT22;24786;51.984;5.872;2023-04-15T05:08:50;6.80;99.90
39019;DHT22;24786;51.984;5.872;2023-04-15T05:11:16;6.80;99.90
39019;DHT22;24786;51.984;5.872;2023-04-15T05:13:41;6.90;99.90
39019;DHT22;24786;51.984;5.872;2023-04-15T05:16:07;6.80;99.90
39019;DHT22;24786;51.984;5.872;2023-04-15T05:18:32;6.80;99.90
39019;DHT22;24786;51.984;5.872;2023-04-15T05:20:58;6.80;99.90
39019;DHT22;24786;51.984;5.872;2023-04-15T05:23:24;6.80;99.90
39019;DHT22;24786;51.984;5.872;2023-04-15T05:25:49;6.90;99.90
39019;DHT22;24786;51.984;5.872;2023-04-15T05:28:15;7.00;99.90
39019;DHT22;24786;51.984;5.872;2023-04-15T05:30:41;7.00;99.90
39019;DHT22;24786;51.984;5.872;2023-04-15T05:33:06;7.10;99.90
39019;DHT22;24786;51.984;5.872;2023-04-15T05:35:32;7.20;99.90
39019;DHT22;24786;51.984;5.872;2023-04-15T05:37:58;7.30;99.90
39019;DHT22;24786;51.984;5.872;2023-04-15T05:40:23;7.30;99.90
39019;DHT22;24786;51.984;5.872;2023-04-15T05:42:49;7.40;99.90
39019;DHT22;24786;51.984;5.872;2023-04-15T05:45:14;7.40;99.90
39019;DHT22;24786;51.984;5.872;2023-04-15T05:47:40;7.40;99.90
39019;DHT22;24786;51.984;5.872;2023-04-15T05:50:05;7.50;99.90
39019;DHT22;24786;51.984;5.872;2023-04-15T05:52:31;7.60;99.90
39019;DHT22;24786;51.984;5.872;2023-04-15T05:54:56;7.80;99.90
39019;DHT22;24786;51.984;5.872;2023-04-15T05:57:22;7.80;99.90
39019;DHT22;24786;51.984;5.872;2023-04-15T05:59:48;8.00;99.90
39019;DHT22;24786;51.984;5.872;2023-04-15T06:02:13;8.10;99.90
39019;DHT22;24786;51.984;5.872;2023-04-15T06:04:39;8.20;99.90
39019;DHT22;24786;51.984;5.872;2023-04-15T06:07:04;8.40;99.90
39019;DHT22;24786;51.984;5.872;2023-04-15T06:09:30;8.50;99.90
39019;DHT22;24786;51.984;5.872;2023-04-15T06:11:55;8.60;99.90
39019;DHT22;24786;51.984;5.872;2023-04-15T06:14:22;8.70;99.90
39019;DHT22;24786;51.984;5.872;2023-04-15T06:16:47;8.80;99.90
39019;DHT22;24786;51.984;5.872;2023-04-15T06:19:12;8.90;99.90
39019;DHT22;24786;51.984;5.872;2023-04-15T06:21:38;8.90;99.90
39019;DHT22;24786;51.984;5.872;2023-04-15T06:24:04;8.80;99.90
39019;DHT22;24786;51.984;5.872;2023-04-15T06:26:29;8.90;99.90
39019;DHT22;24786;51.984;5.872;2023-04-15T06:28:55;8.90;99.90
39019;DHT22;24786;51.984;5.872;2023-04-15T06:31:21;8.90;99.90
39019;DHT22;24786;51.984;5.872;2023-04-15T06:33:46;8.90;99.90
39019;DHT22;24786;51.984;5.872;2023-04-15T06:36:12;8.90;99.90
39019;DHT22;24786;51.984;5.872;2023-04-15T06:38:37;8.90;99.90
39019;DHT22;24786;51.984;5.872;2023-04-15T06:41:03;8.90;99.90
39019;DHT22;24786;51.984;5.872;2023-04-15T06:43:28;9.00;99.90
39019;DHT22;24786;51.984;5.872;2023-04-15T06:45:55;8.90;99.90
39019;DHT22;24786;51.984;5.872;2023-04-15T06:48:21;8.90;99.90
39019;DHT22;24786;51.984;5.872;2023-04-15T06:50:46;8.90;99.90
39019;DHT22;24786;51.984;5.872;2023-04-15T06:53:13;8.90;99.90
39019;DHT22;24786;51.984;5.872;2023-04-15T06:55:38;8.80;99.90
39019;DHT22;24786;51.984;5.872;2023-04-15T06:58:04;8.90;99.90
39019;DHT22;24786;51.984;5.872;2023-04-15T07:00:30;8.80;99.90
39019;DHT22;24786;51.984;5.872;2023-04-15T07:02:55;8.80;99.90
39019;DHT22;24786;51.984;5.872;2023-04-15T07:05:21;8.80;99.90
39019;DHT22;24786;51.984;5.872;2023-04-15T07:07:46;8.80;99.90
39019;DHT22;24786;51.984;5.872;2023-04-15T07:10:12;8.90;99.90
39019;DHT22;24786;51.984;5.872;2023-04-15T07:12:39;8.90;99.90
39019;DHT22;24786;51.984;5.872;2023-04-15T07:15:04;8.90;99.90
39019;DHT22;24786;51.984;5.872;2023-04-15T07:17:30;8.90;99.90
39019;DHT22;24786;51.984;5.872;2023-04-15T07:19:56;8.90;99.90
39019;DHT22;24786;51.984;5.872;2023-04-15T07:22:21;8.90;99.90
39019;DHT22;24786;51.984;5.872;2023-04-15T07:24:47;8.90;99.90
39019;DHT22;24786;51.984;5.872;2023-04-15T07:27:12;8.90;99.90
39019;DHT22;24786;51.984;5.872;2023-04-15T07:29:38;8.90;99.90
39019;DHT22;24786;51.984;5.872;2023-04-15T07:32:03;8.90;99.90
39019;DHT22;24786;51.984;5.872;2023-04-15T07:34:29;8.90;99.90
39019;DHT22;24786;51.984;5.872;2023-04-15T07:36:54;8.90;99.90
39019;DHT22;24786;51.984;5.872;2023-04-15T07:39:20;9.00;99.90
39019;DHT22;24786;51.984;5.872;2023-04-15T07:41:45;9.00;99.90
39019;DHT22;24786;51.984;5.872;2023-04-15T07:44:11;9.10;99.90
39019;DHT22;24786;51.984;5.872;2023-04-15T07:46:37;9.10;99.90
39019;DHT22;24786;51.984;5.872;2023-04-15T07:49:02;9.10;99.90
39019;DHT22;24786;51.984;5.872;2023-04-15T07:51:28;9.20;99.90
39019;DHT22;24786;51.984;5.872;2023-04-15T07:53:54;9.30;99.90
39019;DHT22;24786;51.984;5.872;2023-04-15T07:56:19;9.30;99.90
39019;DHT22;24786;51.984;5.872;2023-04-15T07:58:45;9.40;99.90
39019;DHT22;24786;51.984;5.872;2023-04-15T08:01:10;9.40;99.90
39019;DHT22;24786;51.984;5.872;2023-04-15T08:03:36;9.40;99.90
39019;DHT22;24786;51.984;5.872;2023-04-15T08:06:01;9.50;99.90
39019;DHT22;24786;51.984;5.872;2023-04-15T08:08:27;9.50;99.90
39019;DHT22;24786;51.984;5.872;2023-04-15T08:10:52;9.60;99.90
39019;DHT22;24786;51.984;5.872;2023-04-15T08:13:18;9.60;99.90
39019;DHT22;24786;51.984;5.872;2023-04-15T08:15:43;9.80;99.90
39019;DHT22;24786;51.984;5.872;2023-04-15T08:18:09;9.90;99.90
39019;DHT22;24786;51.984;5.872;2023-04-15T08:20:35;9.90;99.90
39019;DHT22;24786;51.984;5.872;2023-04-15T08:23:01;10.00;99.90
39019;DHT22;24786;51.984;5.872;2023-04-15T08:25:27;10.10;99.90
39019;DHT22;24786;51.984;5.872;2023-04-15T08:27:56;10.10;99.90
39019;DHT22;24786;51.984;5.872;2023-04-15T08:30:22;10.20;99.90
39019;DHT22;24786;51.984;5.872;2023-04-15T08:32:49;10.30;99.90
39019;DHT22;24786;51.984;5.872;2023-04-15T08:35:14;10.40;99.90
39019;DHT22;24786;51.984;5.872;2023-04-15T08:37:40;10.50;99.90
39019;DHT22;24786;51.984;5.872;2023-04-15T08:40:05;10.50;99.90
39019;DHT22;24786;51.984;5.872;2023-04-15T08:42:35;10.60;99.90
39019;DHT22;24786;51.984;5.872;2023-04-15T08:45:03;10.60;99.90
39019;DHT22;24786;51.984;5.872;2023-04-15T08:47:29;10.70;99.90
39019;DHT22;24786;51.984;5.872;2023-04-15T08:49:56;10.70;99.90
39019;DHT22;24786;51.984;5.872;2023-04-15T08:52:23;10.70;99.90
39019;DHT22;24786;51.984;5.872;2023-04-15T08:54:49;10.80;99.90
39019;DHT22;24786;51.984;5.872;2023-04-15T08:57:14;10.80;99.90
39019;DHT22;24786;51.984;5.872;2023-04-15T08:59:40;10.90;99.90
39019;DHT22;24786;51.984;5.872;2023-04-15T09:02:07;10.90;99.90
39019;DHT22;24786;51.984;5.872;2023-04-15T09:04:33;10.90;99.90
39019;DHT22;24786;51.984;5.872;2023-04-15T09:06:58;11.00;99.90
39019;DHT22;24786;51.984;5.872;2023-04-15T09:09:24;11.00;99.90
39019;DHT22;24786;51.984;5.872;2023-04-15T09:11:49;11.10;99.90
39019;DHT22;24786;51.984;5.872;2023-04-15T09:14:15;11.10;99.90
39019;DHT22;24786;51.984;5.872;2023-04-15T09:16:57;11.20;99.90
39019;DHT22;24786;51.984;5.872;2023-04-15T09:19:23;11.30;99.90
39019;DHT22;24786;51.984;5.872;2023-04-15T09:21:50;11.30;99.90
39019;DHT22;24786;51.984;5.872;2023-04-15T09:24:15;11.40;99.90
39019;DHT22;24786;51.984;5.872;2023-04-15T09:26:41;11.40;99.90
39019;DHT22;24786;51.984;5.872;2023-04-15T09:29:07;11.40;99.90
39019;DHT22;24786;51.984;5.872;2023-04-15T09:31:34;11.50;99.90
39019;DHT22;24786;51.984;5.872;2023-04-15T09:33:59;11.50;99.90
39019;DHT22;24786;51.984;5.872;2023-04-15T09:36:25;11.50;99.90
39019;DHT22;24786;51.984;5.872;2023-04-15T09:38:54;11.60;99.90
39019;DHT22;24786;51.984;5.872;2023-04-15T09:41:20;11.70;99.90
39019;DHT22;24786;51.984;5.872;2023-04-15T09:43:46;11.70;99.90
39019;DHT22;24786;51.984;5.872;2023-04-15T09:46:12;11.90;99.90
39019;DHT22;24786;51.984;5.872;2023-04-15T09:48:38;11.90;99.90
39019;DHT22;24786;51.984;5.872;2023-04-15T09:51:03;12.00;99.90
39019;DHT22;24786;51.984;5.872;2023-04-15T09:53:31;12.10;99.90
39019;DHT22;24786;51.984;5.872;2023-04-15T09:55:57;12.20;99.90
39019;DHT22;24786;51.984;5.872;2023-04-15T09:58:25;12.20;99.90
39019;DHT22;24786;51.984;5.872;2023-04-15T10:00:52;12.20;99.90
39019;DHT22;24786;51.984;5.872;2023-04-15T10:03:21;12.20;99.90
39019;DHT22;24786;51.984;5.872;2023-04-15T10:05:48;12.30;99.90
39019;DHT22;24786;51.984;5.872;2023-04-15T10:08:18;12.40;99.90
39019;DHT22;24786;51.984;5.872;2023-04-15T10:10:45;12.50;99.90
39019;DHT22;24786;51.984;5.872;2023-04-15T10:13:18;12.50;99.90
39019;DHT22;24786;51.984;5.872;2023-04-15T10:15:47;12.50;99.90
39019;DHT22;24786;51.984;5.872;2023-04-15T10:18:15;12.50;99.90
39019;DHT22;24786;51.984;5.872;2023-04-15T10:20:41;12.60;99.90
39019;DHT22;24786;51.984;5.872;2023-04-15T10:23:07;12.70;99.90
39019;DHT22;24786;51.984;5.872;2023-04-15T10:25:33;12.80;99.90
39019;DHT22;24786;51.984;5.872;2023-04-15T10:27:59;12.90;99.90
39019;DHT22;24786;51.984;5.872;2023-04-15T10:30:26;13.00;99.90
39019;DHT22;24786;51.984;5.872;2023-04-15T10:32:52;13.20;99.90
39019;DHT22;24786;51.984;5.872;2023-04-15T10:35:17;13.30;99.90
39019;DHT22;24786;51.984;5.872;2023-04-15T10:37:43;13.40;99.90
39019;DHT22;24786;51.984;5.872;2023-04-15T10:40:28;13.40;99.90
39019;DHT22;24786;51.984;5.872;2023-04-15T10:42:56;13.40;99.90
39019;DHT22;24786;51.984;5.872;2023-04-15T10:45:24;13.50;99.90
39019;DHT22;24786;51.984;5.872;2023-04-15T10:47:55;13.50;99.90
39019;DHT22;24786;51.984;5.872;2023-04-15T10:50:21;13.40;99.90
39019;DHT22;24786;51.984;5.872;2023-04-15T10:52:50;13.30;99.90
39019;DHT22;24786;51.984;5.872;2023-04-15T10:55:20;13.10;99.90
39019;DHT22;24786;51.984;5.872;2023-04-15T10:57:46;13.10;99.90
39019;DHT22;24786;51.984;5.872;2023-04-15T11:05:05;13.40;99.90
39019;DHT22;24786;51.984;5.872;2023-04-15T11:07:32;13.40;99.90
39019;DHT22;24786;51.984;5.872;2023-04-15T11:09:57;13.40;99.90
39019;DHT22;24786;51.984;5.872;2023-04-15T11:12:23;13.40;99.90
39019;DHT22;24786;51.984;5.872;2023-04-15T11:14:57;13.40;99.90
39019;DHT22;24786;51.984;5.872;2023-04-15T11:17:26;13.60;99.90
39019;DHT22;24786;51.984;5.872;2023-04-15T11:19:52;13.70;99.90
39019;DHT22;24786;51.984;5.872;2023-04-15T11:22:18;13.80;99.90
39019;DHT22;24786;51.984;5.872;2023-04-15T11:24:47;13.80;99.90
39019;DHT22;24786;51.984;5.872;2023-04-15T11:27:19;13.90;99.90
39019;DHT22;24786;51.984;5.872;2023-04-15T11:29:45;13.90;99.90
39019;DHT22;24786;51.984;5.872;2023-04-15T11:32:10;13.90;99.90
39019;DHT22;24786;51.984;5.872;2023-04-15T11:34:36;13.90;99.90
39019;DHT22;24786;51.984;5.872;2023-04-15T11:37:04;14.00;99.90
39019;DHT22;24786;51.984;5.872;2023-04-15T11:39:30;14.00;99.90
39019;DHT22;24786;51.984;5.872;2023-04-15T11:41:56;13.90;99.90
39019;DHT22;24786;51.984;5.872;2023-04-15T11:44:21;14.00;99.90
39019;DHT22;24786;51.984;5.872;2023-04-15T11:46:47;13.90;99.90
39019;DHT22;24786;51.984;5.872;2023-04-15T11:49:24;13.90;99.90
39019;DHT22;24786;51.984;5.872;2023-04-15T11:51:50;14.10;99.90
39019;DHT22;24786;51.984;5.872;2023-04-15T11:54:18;14.20;99.90
39019;DHT22;24786;51.984;5.872;2023-04-15T11:56:48;14.40;99.90
39019;DHT22;24786;51.984;5.872;2023-04-15T11:59:14;14.50;99.90
39019;DHT22;24786;51.984;5.872;2023-04-15T12:01:40;14.50;99.90
39019;DHT22;24786;51.984;5.872;2023-04-15T12:04:14;14.50;99.90
39019;DHT22;24786;51.984;5.872;2023-04-15T12:06:41;14.50;99.90
39019;DHT22;24786;51.984;5.872;2023-04-15T12:11:40;14.50;99.30
39019;DHT22;24786;51.984;5.872;2023-04-15T12:16:32;14.50;99.20
39019;DHT22;24786;51.984;5.872;2023-04-15T12:18:58;14.50;98.90
39019;DHT22;24786;51.984;5.872;2023-04-15T12:21:25;14.50;99.30
39019;DHT22;24786;51.984;5.872;2023-04-15T12:23:55;14.70;99.40
39019;DHT22;24786;51.984;5.872;2023-04-15T12:26:27;14.70;99.10
39019;DHT22;24786;51.984;5.872;2023-04-15T12:29:14;14.60;99.50
39019;DHT22;24786;51.984;5.872;2023-04-15T12:31:49;14.50;99.40
39019;DHT22;24786;51.984;5.872;2023-04-15T12:34:16;14.50;98.90
39019;DHT22;24786;51.984;5.872;2023-04-15T12:36:42;14.50;99.20
39019;DHT22;24786;51.984;5.872;2023-04-15T12:39:07;14.70;99.60
39019;DHT22;24786;51.984;5.872;2023-04-15T12:41:33;14.80;99.60
39019;DHT22;24786;51.984;5.872;2023-04-15T12:43:59;14.90;98.90
39019;DHT22;24786;51.984;5.872;2023-04-15T12:46:24;14.90;98.90
39019;DHT22;24786;51.984;5.872;2023-04-15T12:48:50;14.80;98.80
39019;DHT22;24786;51.984;5.872;2023-04-15T12:51:19;14.70;99.30
39019;DHT22;24786;51.984;5.872;2023-04-15T12:53:47;14.50;99.60
39019;DHT22;24786;51.984;5.872;2023-04-15T12:56:14;14.40;99.90
39019;DHT22;24786;51.984;5.872;2023-04-15T12:58:39;14.40;99.90
39019;DHT22;24786;51.984;5.872;2023-04-15T13:01:05;14.60;99.90
39019;DHT22;24786;51.984;5.872;2023-04-15T13:03:31;14.60;99.90
39019;DHT22;24786;51.984;5.872;2023-04-15T13:05:56;14.40;99.90
39019;DHT22;24786;51.984;5.872;2023-04-15T13:08:22;14.40;99.90
39019;DHT22;24786;51.984;5.872;2023-04-15T13:10:47;14.50;99.80
39019;DHT22;24786;51.984;5.872;2023-04-15T13:13:13;14.60;99.70
39019;DHT22;24786;51.984;5.872;2023-04-15T13:15:38;14.50;99.40
39019;DHT22;24786;51.984;5.872;2023-04-15T13:18:05;14.40;99.40
39019;DHT22;24786;51.984;5.872;2023-04-15T13:20:30;14.30;99.70
39019;DHT22;24786;51.984;5.872;2023-04-15T13:22:56;14.20;99.60
39019;DHT22;24786;51.984;5.872;2023-04-15T13:25:21;14.20;99.80
39019;DHT22;24786;51.984;5.872;2023-04-15T13:27:47;14.20;99.90
39019;DHT22;24786;51.984;5.872;2023-04-15T13:30:12;14.20;99.90
39019;DHT22;24786;51.984;5.872;2023-04-15T13:32:38;14.10;99.90
39019;DHT22;24786;51.984;5.872;2023-04-15T13:35:03;14.00;99.90
39019;DHT22;24786;51.984;5.872;2023-04-15T13:37:29;13.90;99.90
39019;DHT22;24786;51.984;5.872;2023-04-15T13:39:55;13.90;99.90
39019;DHT22;24786;51.984;5.872;2023-04-15T13:42:23;14.00;99.90
39019;DHT22;24786;51.984;5.872;2023-04-15T13:44:49;14.10;99.90
39019;DHT22;24786;51.984;5.872;2023-04-15T13:47:16;14.30;99.90
39019;DHT22;24786;51.984;5.872;2023-04-15T13:49:41;14.30;99.80
39019;DHT22;24786;51.984;5.872;2023-04-15T13:52:07;14.40;99.90
39019;DHT22;24786;51.984;5.872;2023-04-15T13:54:33;14.30;99.90
39019;DHT22;24786;51.984;5.872;2023-04-15T13:56:58;14.30;99.90
39019;DHT22;24786;51.984;5.872;2023-04-15T13:59:24;14.30;99.60
39019;DHT22;24786;51.984;5.872;2023-04-15T14:01:49;14.20;99.90
39019;DHT22;24786;51.984;5.872;2023-04-15T14:04:15;14.00;99.90
39019;DHT22;24786;51.984;5.872;2023-04-15T14:06:40;13.90;99.90
39019;DHT22;24786;51.984;5.872;2023-04-15T14:09:06;13.70;99.90
39019;DHT22;24786;51.984;5.872;2023-04-15T14:11:31;13.60;99.90
39019;DHT22;24786;51.984;5.872;2023-04-15T14:13:59;13.50;99.90
39019;DHT22;24786;51.984;5.872;2023-04-15T14:16:25;13.30;99.90
39019;DHT22;24786;51.984;5.872;2023-04-15T14:18:50;13.20;99.90
39019;DHT22;24786;51.984;5.872;2023-04-15T14:21:15;13.10;99.90
39019;DHT22;24786;51.984;5.872;2023-04-15T14:23:41;13.00;99.90
39019;DHT22;24786;51.984;5.872;2023-04-15T14:26:06;12.80;99.90
39019;DHT22;24786;51.984;5.872;2023-04-15T14:28:32;12.80;99.90
39019;DHT22;24786;51.984;5.872;2023-04-15T14:30:57;12.70;99.90
39019;DHT22;24786;51.984;5.872;2023-04-15T14:33:23;12.60;99.90
39019;DHT22;24786;51.984;5.872;2023-04-15T14:35:48;12.50;99.90
39019;DHT22;24786;51.984;5.872;2023-04-15T14:38:15;12.40;99.90
39019;DHT22;24786;51.984;5.872;2023-04-15T14:40:40;12.30;99.90
39019;DHT22;24786;51.984;5.872;2023-04-15T14:43:06;12.40;99.90
39019;DHT22;24786;51.984;5.872;2023-04-15T14:45:31;12.40;99.90
39019;DHT22;24786;51.984;5.872;2023-04-15T14:47:57;12.20;99.90
39019;DHT22;24786;51.984;5.872;2023-04-15T14:50:23;12.10;99.90
39019;DHT22;24786;51.984;5.872;2023-04-15T14:52:48;12.10;99.90
39019;DHT22;24786;51.984;5.872;2023-04-15T14:55:14;12.10;99.90
39019;DHT22;24786;51.984;5.872;2023-04-15T14:57:40;12.10;99.90
39019;DHT22;24786;51.984;5.872;2023-04-15T15:00:06;12.00;99.90
39019;DHT22;24786;51.984;5.872;2023-04-15T15:02:32;11.90;99.90
39019;DHT22;24786;51.984;5.872;2023-04-15T15:04:57;11.90;99.90
39019;DHT22;24786;51.984;5.872;2023-04-15T15:07:23;11.90;99.90
39019;DHT22;24786;51.984;5.872;2023-04-15T15:09:48;11.90;99.90
39019;DHT22;24786;51.984;5.872;2023-04-15T15:12:14;11.90;99.90
39019;DHT22;24786;51.984;5.872;2023-04-15T15:14:40;11.90;99.90
39019;DHT22;24786;51.984;5.872;2023-04-15T15:17:05;12.00;99.90
39019;DHT22;24786;51.984;5.872;2023-04-15T15:19:31;11.90;99.90
39019;DHT22;24786;51.984;5.872;2023-04-15T15:21:56;11.90;99.90
39019;DHT22;24786;51.984;5.872;2023-04-15T15:24:22;11.80;99.90
39019;DHT22;24786;51.984;5.872;2023-04-15T15:26:47;11.70;99.90
39019;DHT22;24786;51.984;5.872;2023-04-15T15:29:13;11.70;99.90
39019;DHT22;24786;51.984;5.872;2023-04-15T15:31:38;11.70;99.90
39019;DHT22;24786;51.984;5.872;2023-04-15T15:34:04;11.70;99.90
39019;DHT22;24786;51.984;5.872;2023-04-15T15:36:29;11.70;99.90
39019;DHT22;24786;51.984;5.872;2023-04-15T15:38:56;11.70;99.90
39019;DHT22;24786;51.984;5.872;2023-04-15T15:41:22;11.60;99.90